sensor_id;sensor_type;location;lat;lon;timestamp;temperature;humidity
34279;DHT22;20538;51.528;9.942;2023-02-28T00:00:33;-1.40;99.90
34279;DHT22;20538;51.528;9.942;2023-02-28T00:02:59;-1.40;99.90
34279;DHT22;20538;51.528;9.942;2023-02-28T00:05:26;-1.20;99.90
34279;DHT22;20538;51.528;9.942;2023-02-28T00:07:52;-1.10;99.90
34279;DHT22;20538;51.528;9.942;2023-02-28T00:10:21;-1.10;99.90
34279;DHT22;20538;51.528;9.942;2023-02-28T00:12:49;-1.00;99.90
34279;DHT22;20538;51.528;9.942;2023-02-28T00:15:15;-1.00;99.90
34279;DHT22;20538;51.528;9.942;2023-02-28T00:17:42;-0.90;99.90
34279;DHT22;20538;51.528;9.942;2023-02-28T00:20:08;-0.90;99.90
34279;DHT22;20538;51.528;9.942;2023-02-28T00:22:41;-0.80;99.90
34279;DHT22;20538;51.528;9.942;2023-02-28T00:25:09;-0.70;99.90
34279;DHT22;20538;51.528;9.942;2023-02-28T00:27:36;-0.70;99.90
34279;DHT22;20538;51.528;9.942;2023-02-28T00:30:02;-0.70;99.90
34279;DHT22;20538;51.528;9.942;2023-02-28T00:32:27;-0.60;99.90
34279;DHT22;20538;51.528;9.942;2023-02-28T00:34:53;-0.60;99.90
34279;DHT22;20538;51.528;9.942;2023-02-28T00:37:18;-0.60;99.90
34279;DHT22;20538;51.528;9.942;2023-02-28T00:39:44;-0.70;99.90
34279;DHT22;20538;51.528;9.942;2023-02-28T00:42:10;-0.60;99.90
34279;DHT22;20538;51.528;9.942;2023-02-28T00:44:35;-0.60;99.90
34279;DHT22;20538;51.528;9.942;2023-02-28T00:47:01;-0.50;99.90
34279;DHT22;20538;51.528;9.942;2023-02-28T00:49:27;-0.50;99.90
34279;DHT22;20538;51.528;9.942;2023-02-28T00:51:54;-0.50;99.90
34279;DHT22;20538;51.528;9.942;2023-02-28T00:54:21;-0.60;99.90
34279;DHT22;20538;51.528;9.942;2023-02-28T00:56:48;-0.60;99.90
34279;DHT22;20538;51.528;9.942;2023-02-28T00:59:14;-0.60;99.90
34279;DHT22;20538;51.528;9.942;2023-02-28T01:01:40;-0.50;99.90
34279;DHT22;20538;51.528;9.942;2023-02-28T01:04:06;-0.60;99.90
34279;DHT22;20538;51.528;9.942;2023-02-28T01:06:32;-0.70;99.90
34279;DHT22;20538;51.528;9.942;2023-02-28T01:08:58;-0.70;99.90
34279;DHT22;20538;51.528;9.942;2023-02-28T01:11:24;-0.70;99.90
34279;DHT22;20538;51.528;9.942;2023-02-28T01:13:50;-0.70;99.90
34279;DHT22;20538;51.528;9.942;2023-02-28T01:16:16;-0.80;99.90
34279;DHT22;20538;51.528;9.942;2023-02-28T01:18:42;-0.70;99.90
34279;DHT22;20538;51.528;9.942;2023-02-28T01:21:13;-0.80;99.90
34279;DHT22;20538;51.528;9.942;2023-02-28T01:23:39;-0.80;99.90
34279;DHT22;20538;51.528;9.942;2023-02-28T01:26:11;-0.90;99.90
34279;DHT22;20538;51.528;9.942;2023-02-28T01:28:40;-0.90;99.90
34279;DHT22;20538;51.528;9.942;2023-02-28T01:31:06;-0.90;99.90
34279;DHT22;20538;51.528;9.942;2023-02-28T01:33:32;-0.90;99.90
34279;DHT22;20538;51.528;9.942;2023-02-28T01:35:59;-0.80;99.90
34279;DHT22;20538;51.528;9.942;2023-02-28T01:38:25;-0.90;99.90
34279;DHT22;20538;51.528;9.942;2023-02-28T01:40:51;-0.80;99.90
34279;DHT22;20538;51.528;9.942;2023-02-28T01:43:27;-0.90;99.90
34279;DHT22;20538;51.528;9.942;2023-02-28T01:45:55;-1.00;99.90
34279;DHT22;20538;51.528;9.942;2023-02-28T01:48:24;-1.10;99.90
34279;DHT22;20538;51.528;9.942;2023-02-28T01:50:52;-1.10;99.90
34279;DHT22;20538;51.528;9.942;2023-02-28T01:53:21;-1.10;99.90
34279;DHT22;20538;51.528;9.942;2023-02-28T01:55:50;-1.10;99.90
34279;DHT22;20538;51.528;9.942;2023-02-28T01:58:17;-1.10;99.90
34279;DHT22;20538;51.528;9.942;2023-02-28T02:00:43;-1.10;99.90
34279;DHT22;20538;51.528;9.942;2023-02-28T02:03:10;-1.10;99.90
34279;DHT22;20538;51.528;9.942;2023-02-28T02:05:38;-1.00;99.90
34279;DHT22;20538;51.528;9.942;2023-02-28T02:08:28;-1.00;99.90
34279;DHT22;20538;51.528;9.942;2023-02-28T02:10:59;-1.00;99.90
34279;DHT22;20538;51.528;9.942;2023-02-28T02:18:57;-1.00;99.90
34279;DHT22;20538;51.528;9.942;2023-02-28T02:21:55;-1.10;99.90
34279;DHT22;20538;51.528;9.942;2023-02-28T02:35:24;-1.00;99.90
34279;DHT22;20538;51.528;9.942;2023-02-28T02:41:01;-0.90;99.90
34279;DHT22;20538;51.528;9.942;2023-02-28T02:43:33;-0.90;99.90
34279;DHT22;20538;51.528;9.942;2023-02-28T02:46:08;-0.90;99.90
34279;DHT22;20538;51.528;9.942;2023-02-28T02:48:38;-0.90;99.90
34279;DHT22;20538;51.528;9.942;2023-02-28T02:51:10;-0.90;99.90
34279;DHT22;20538;51.528;9.942;2023-02-28T02:53:46;-0.90;99.90
34279;DHT22;20538;51.528;9.942;2023-02-28T02:56:16;-0.90;99.90
34279;DHT22;20538;51.528;9.942;2023-02-28T02:58:44;-0.80;99.90
34279;DHT22;20538;51.528;9.942;2023-02-28T03:01:18;-0.80;99.90
34279;DHT22;20538;51.528;9.942;2023-02-28T03:03:59;-0.70;99.90
34279;DHT22;20538;51.528;9.942;2023-02-28T03:06:26;-0.70;99.90
34279;DHT22;20538;51.528;9.942;2023-02-28T03:08:52;-0.70;99.90
34279;DHT22;20538;51.528;9.942;2023-02-28T03:11:19;-0.70;99.90
34279;DHT22;20538;51.528;9.942;2023-02-28T03:16:57;-0.60;99.90
34279;DHT22;20538;51.528;9.942;2023-02-28T03:19:47;-0.60;99.90
34279;DHT22;20538;51.528;9.942;2023-02-28T03:27:39;-0.60;99.90
34279;DHT22;20538;51.528;9.942;2023-02-28T03:30:56;-0.50;99.90
34279;DHT22;20538;51.528;9.942;2023-02-28T03:33:13;-0.50;99.90
34279;DHT22;20538;51.528;9.942;2023-02-28T03:35:43;-0.50;99.90
34279;DHT22;20538;51.528;9.942;2023-02-28T03:38:18;-0.50;99.90
34279;DHT22;20538;51.528;9.942;2023-02-28T03:40:50;-0.40;99.90
34279;DHT22;20538;51.528;9.942;2023-02-28T03:43:28;-0.40;99.90
34279;DHT22;20538;51.528;9.942;2023-02-28T03:45:55;-0.30;99.90
34279;DHT22;20538;51.528;9.942;2023-02-28T03:48:31;-0.30;99.90
34279;DHT22;20538;51.528;9.942;2023-02-28T03:50:59;-0.30;99.90
34279;DHT22;20538;51.528;9.942;2023-02-28T03:53:27;-0.30;99.90
34279;DHT22;20538;51.528;9.942;2023-02-28T03:56:17;-0.30;99.90
34279;DHT22;20538;51.528;9.942;2023-02-28T03:59:10;-0.30;99.90
34279;DHT22;20538;51.528;9.942;2023-02-28T04:01:41;-0.30;99.90
34279;DHT22;20538;51.528;9.942;2023-02-28T04:04:09;-0.30;99.90
34279;DHT22;20538;51.528;9.942;2023-02-28T04:06:36;-0.30;99.90
34279;DHT22;20538;51.528;9.942;2023-02-28T04:09:03;-0.40;99.90
34279;DHT22;20538;51.528;9.942;2023-02-28T04:11:37;-0.40;99.90
34279;DHT22;20538;51.528;9.942;2023-02-28T04:14:05;-0.40;99.90
34279;DHT22;20538;51.528;9.942;2023-02-28T04:16:32;-0.30;99.90
34279;DHT22;20538;51.528;9.942;2023-02-28T04:18:58;-0.30;99.90
34279;DHT22;20538;51.528;9.942;2023-02-28T04:21:31;-0.40;99.90
34279;DHT22;20538;51.528;9.942;2023-02-28T04:23:56;-0.40;99.90
34279;DHT22;20538;51.528;9.942;2023-02-28T04:26:28;-0.40;99.90
34279;DHT22;20538;51.528;9.942;2023-02-28T04:28:55;-0.40;99.90
34279;DHT22;20538;51.528;9.942;2023-02-28T04:31:21;-0.40;99.90
34279;DHT22;20538;51.528;9.942;2023-02-28T04:33:46;-0.30;99.90
34279;DHT22;20538;51.528;9.942;2023-02-28T04:36:12;-0.30;99.90
34279;DHT22;20538;51.528;9.942;2023-02-28T04:38:39;-0.30;99.90
34279;DHT22;20538;51.528;9.942;2023-02-28T04:41:05;-0.30;99.90
34279;DHT22;20538;51.528;9.942;2023-02-28T04:43:32;-0.30;99.90
34279;DHT22;20538;51.528;9.942;2023-02-28T04:46:01;-0.30;99.90
34279;DHT22;20538;51.528;9.942;2023-02-28T04:48:29;-0.30;99.90
34279;DHT22;20538;51.528;9.942;2023-02-28T04:50:55;-0.30;99.90
34279;DHT22;20538;51.528;9.942;2023-02-28T04:53:25;-0.30;99.90
34279;DHT22;20538;51.528;9.942;2023-02-28T04:55:50;-0.30;99.90
34279;DHT22;20538;51.528;9.942;2023-02-28T04:58:16;-0.20;99.90
34279;DHT22;20538;51.528;9.942;2023-02-28T05:00:42;-0.20;99.90
34279;DHT22;20538;51.528;9.942;2023-02-28T05:03:08;-0.20;99.90
34279;DHT22;20538;51.528;9.942;2023-02-28T05:05:35;-0.10;99.90
34279;DHT22;20538;51.528;9.942;2023-02-28T05:08:00;0.00;99.90
34279;DHT22;20538;51.528;9.942;2023-02-28T05:10:26;0.00;99.90
34279;DHT22;20538;51.528;9.942;2023-02-28T05:12:51;-0.10;99.90
34279;DHT22;20538;51.528;9.942;2023-02-28T05:15:17;-0.10;99.90
34279;DHT22;20538;51.528;9.942;2023-02-28T05:17:43;0.00;99.90
34279;DHT22;20538;51.528;9.942;2023-02-28T05:20:10;0.10;99.90
34279;DHT22;20538;51.528;9.942;2023-02-28T05:22:37;0.00;99.90
34279;DHT22;20538;51.528;9.942;2023-02-28T05:25:03;-0.10;99.90
34279;DHT22;20538;51.528;9.942;2023-02-28T05:27:30;0.00;99.90
34279;DHT22;20538;51.528;9.942;2023-02-28T05:29:56;0.00;99.90
34279;DHT22;20538;51.528;9.942;2023-02-28T05:32:22;0.00;99.90
34279;DHT22;20538;51.528;9.942;2023-02-28T05:34:48;0.00;99.90
34279;DHT22;20538;51.528;9.942;2023-02-28T05:37:14;-0.10;99.90
34279;DHT22;20538;51.528;9.942;2023-02-28T05:39:41;0.00;99.90
34279;DHT22;20538;51.528;9.942;2023-02-28T05:42:07;0.00;99.90
34279;DHT22;20538;51.528;9.942;2023-02-28T05:44:33;0.10;99.90
34279;DHT22;20538;51.528;9.942;2023-02-28T05:46:59;0.10;99.90
34279;DHT22;20538;51.528;9.942;2023-02-28T05:49:24;0.00;99.90
34279;DHT22;20538;51.528;9.942;2023-02-28T05:51:50;0.10;99.90
34279;DHT22;20538;51.528;9.942;2023-02-28T05:54:16;0.10;99.90
34279;DHT22;20538;51.528;9.942;2023-02-28T05:56:41;0.10;99.90
34279;DHT22;20538;51.528;9.942;2023-02-28T05:59:09;0.10;99.90
34279;DHT22;20538;51.528;9.942;2023-02-28T06:01:40;0.10;99.90
34279;DHT22;20538;51.528;9.942;2023-02-28T06:04:09;0.10;99.90
34279;DHT22;20538;51.528;9.942;2023-02-28T06:06:36;0.00;99.90
34279;DHT22;20538;51.528;9.942;2023-02-28T06:09:06;0.10;99.90
34279;DHT22;20538;51.528;9.942;2023-02-28T06:11:32;0.10;99.90
34279;DHT22;20538;51.528;9.942;2023-02-28T06:13:59;0.10;99.90
34279;DHT22;20538;51.528;9.942;2023-02-28T06:16:26;0.10;99.90
34279;DHT22;20538;51.528;9.942;2023-02-28T06:18:52;0.10;99.90
34279;DHT22;20538;51.528;9.942;2023-02-28T06:21:21;0.10;99.90
34279;DHT22;20538;51.528;9.942;2023-02-28T06:23:46;0.20;99.90
34279;DHT22;20538;51.528;9.942;2023-02-28T06:26:12;0.20;99.90
34279;DHT22;20538;51.528;9.942;2023-02-28T06:28:38;0.20;99.90
34279;DHT22;20538;51.528;9.942;2023-02-28T06:31:08;0.20;99.90
34279;DHT22;20538;51.528;9.942;2023-02-28T06:33:35;0.20;99.90
34279;DHT22;20538;51.528;9.942;2023-02-28T06:36:01;0.30;99.90
34279;DHT22;20538;51.528;9.942;2023-02-28T06:38:27;0.30;99.90
34279;DHT22;20538;51.528;9.942;2023-02-28T06:40:56;0.30;99.90
34279;DHT22;20538;51.528;9.942;2023-02-28T06:43:23;0.30;99.90
34279;DHT22;20538;51.528;9.942;2023-02-28T06:45:49;0.30;99.90
34279;DHT22;20538;51.528;9.942;2023-02-28T06:48:15;0.30;99.90
34279;DHT22;20538;51.528;9.942;2023-02-28T06:50:40;0.40;99.90
34279;DHT22;20538;51.528;9.942;2023-02-28T06:53:06;0.40;99.90
34279;DHT22;20538;51.528;9.942;2023-02-28T06:55:31;0.50;99.90
34279;DHT22;20538;51.528;9.942;2023-02-28T06:57:58;0.50;99.90
34279;DHT22;20538;51.528;9.942;2023-02-28T07:00:24;0.50;99.90
34279;DHT22;20538;51.528;9.942;2023-02-28T07:02:50;0.60;99.90
34279;DHT22;20538;51.528;9.942;2023-02-28T07:05:16;0.60;99.90
34279;DHT22;20538;51.528;9.942;2023-02-28T07:07:44;0.60;99.90
34279;DHT22;20538;51.528;9.942;2023-02-28T07:10:12;0.60;99.90
34279;DHT22;20538;51.528;9.942;2023-02-28T07:12:39;0.70;99.90
34279;DHT22;20538;51.528;9.942;2023-02-28T07:15:08;0.80;99.90
34279;DHT22;20538;51.528;9.942;2023-02-28T07:17:34;0.80;99.90
34279;DHT22;20538;51.528;9.942;2023-02-28T07:19:59;0.90;99.90
34279;DHT22;20538;51.528;9.942;2023-02-28T07:22:25;1.00;99.90
34279;DHT22;20538;51.528;9.942;2023-02-28T07:24:50;1.00;99.90
34279;DHT22;20538;51.528;9.942;2023-02-28T07:27:17;1.10;99.90
34279;DHT22;20538;51.528;9.942;2023-02-28T07:29:49;1.20;99.90
34279;DHT22;20538;51.528;9.942;2023-02-28T07:32:15;1.20;99.90
34279;DHT22;20538;51.528;9.942;2023-02-28T07:34:41;1.20;99.90
34279;DHT22;20538;51.528;9.942;2023-02-28T07:37:06;1.20;99.90
34279;DHT22;20538;51.528;9.942;2023-02-28T07:39:32;1.10;99.90
34279;DHT22;20538;51.528;9.942;2023-02-28T07:41:58;1.10;99.90
34279;DHT22;20538;51.528;9.942;2023-02-28T07:44:27;1.20;99.90
34279;DHT22;20538;51.528;9.942;2023-02-28T07:46:52;1.20;99.90
34279;DHT22;20538;51.528;9.942;2023-02-28T07:49:18;1.20;99.90
34279;DHT22;20538;51.528;9.942;2023-02-28T07:51:44;1.20;99.90
34279;DHT22;20538;51.528;9.942;2023-02-28T07:54:10;1.40;99.90
34279;DHT22;20538;51.528;9.942;2023-02-28T07:56:35;1.60;99.90
34279;DHT22;20538;51.528;9.942;2023-02-28T07:59:01;1.70;99.90
34279;DHT22;20538;51.528;9.942;2023-02-28T08:01:27;1.70;99.90
34279;DHT22;20538;51.528;9.942;2023-02-28T08:03:52;1.90;99.90
34279;DHT22;20538;51.528;9.942;2023-02-28T08:06:22;1.80;99.90
34279;DHT22;20538;51.528;9.942;2023-02-28T08:08:49;1.70;99.90
34279;DHT22;20538;51.528;9.942;2023-02-28T08:11:16;1.60;99.90
34279;DHT22;20538;51.528;9.942;2023-02-28T08:13:43;1.70;99.90
34279;DHT22;20538;51.528;9.942;2023-02-28T08:16:09;1.60;99.90
34279;DHT22;20538;51.528;9.942;2023-02-28T08:18:35;1.60;99.90
34279;DHT22;20538;51.528;9.942;2023-02-28T08:21:09;1.70;99.90
34279;DHT22;20538;51.528;9.942;2023-02-28T08:23:35;1.70;99.90
34279;DHT22;20538;51.528;9.942;2023-02-28T08:26:02;1.70;99.90
34279;DHT22;20538;51.528;9.942;2023-02-28T08:28:27;1.70;99.90
34279;DHT22;20538;51.528;9.942;2023-02-28T08:30:53;1.80;99.90
34279;DHT22;20538;51.528;9.942;2023-02-28T08:33:19;2.00;99.90
34279;DHT22;20538;51.528;9.942;2023-02-28T08:35:45;2.00;99.90
34279;DHT22;20538;51.528;9.942;2023-02-28T08:38:11;2.00;99.90
34279;DHT22;20538;51.528;9.942;2023-02-28T08:40:37;1.80;99.90
34279;DHT22;20538;51.528;9.942;2023-02-28T08:43:04;1.70;99.90
34279;DHT22;20538;51.528;9.942;2023-02-28T08:45:30;1.80;99.90
34279;DHT22;20538;51.528;9.942;2023-02-28T08:47:58;2.00;99.90
34279;DHT22;20538;51.528;9.942;2023-02-28T08:50:24;2.10;99.90
34279;DHT22;20538;51.528;9.942;2023-02-28T08:52:50;2.40;99.90
34279;DHT22;20538;51.528;9.942;2023-02-28T08:55:15;2.10;99.90
34279;DHT22;20538;51.528;9.942;2023-02-28T08:57:41;2.00;99.90
34279;DHT22;20538;51.528;9.942;2023-02-28T09:00:07;2.10;99.90
34279;DHT22;20538;51.528;9.942;2023-02-28T09:02:33;2.00;99.90
34279;DHT22;20538;51.528;9.942;2023-02-28T09:04:59;2.20;99.90
34279;DHT22;20538;51.528;9.942;2023-02-28T09:07:24;2.10;99.90
34279;DHT22;20538;51.528;9.942;2023-02-28T09:09:50;2.10;99.90
34279;DHT22;20538;51.528;9.942;2023-02-28T09:12:24;2.30;99.90
34279;DHT22;20538;51.528;9.942;2023-02-28T09:14:50;2.60;99.90
34279;DHT22;20538;51.528;9.942;2023-02-28T09:17:16;2.20;99.90
34279;DHT22;20538;51.528;9.942;2023-02-28T09:19:42;2.20;99.90
34279;DHT22;20538;51.528;9.942;2023-02-28T09:22:08;2.40;99.90
34279;DHT22;20538;51.528;9.942;2023-02-28T09:24:35;2.40;99.90
34279;DHT22;20538;51.528;9.942;2023-02-28T09:27:01;2.30;99.90
34279;DHT22;20538;51.528;9.942;2023-02-28T09:29:26;2.10;99.90
34279;DHT22;20538;51.528;9.942;2023-02-28T09:31:52;2.20;99.90
34279;DHT22;20538;51.528;9.942;2023-02-28T09:34:18;2.30;99.90
34279;DHT22;20538;51.528;9.942;2023-02-28T09:36:43;2.30;99.90
34279;DHT22;20538;51.528;9.942;2023-02-28T09:39:09;2.50;99.90
34279;DHT22;20538;51.528;9.942;2023-02-28T09:41:41;2.50;99.90
34279;DHT22;20538;51.528;9.942;2023-02-28T09:47:39;2.90;99.90
34279;DHT22;20538;51.528;9.942;2023-02-28T09:50:40;2.80;99.90
34279;DHT22;20538;51.528;9.942;2023-02-28T09:52:59;2.90;99.90
34279;DHT22;20538;51.528;9.942;2023-02-28T09:55:44;3.10;99.90
34279;DHT22;20538;51.528;9.942;2023-02-28T09:58:28;3.40;99.90
34279;DHT22;20538;51.528;9.942;2023-02-28T10:04:03;3.50;99.90
34279;DHT22;20538;51.528;9.942;2023-02-28T10:06:44;3.00;99.90
34279;DHT22;20538;51.528;9.942;2023-02-28T10:09:18;3.00;99.90
34279;DHT22;20538;51.528;9.942;2023-02-28T10:11:49;3.20;99.90
34279;DHT22;20538;51.528;9.942;2023-02-28T10:14:22;2.90;99.90
34279;DHT22;20538;51.528;9.942;2023-02-28T10:17:15;2.70;99.90
34279;DHT22;20538;51.528;9.942;2023-02-28T10:20:04;2.80;99.90
34279;DHT22;20538;51.528;9.942;2023-02-28T10:25:18;2.60;99.90
34279;DHT22;20538;51.528;9.942;2023-02-28T10:27:44;2.80;99.90
34279;DHT22;20538;51.528;9.942;2023-02-28T10:30:11;3.00;99.90
34279;DHT22;20538;51.528;9.942;2023-02-28T10:32:40;3.40;99.90
34279;DHT22;20538;51.528;9.942;2023-02-28T10:35:19;3.20;99.90
34279;DHT22;20538;51.528;9.942;2023-02-28T10:37:47;3.20;99.90
34279;DHT22;20538;51.528;9.942;2023-02-28T10:45:36;3.10;99.90
34279;DHT22;20538;51.528;9.942;2023-02-28T10:48:05;3.30;99.90
34279;DHT22;20538;51.528;9.942;2023-02-28T10:50:42;3.40;99.90
34279;DHT22;20538;51.528;9.942;2023-02-28T10:55:42;3.30;99.90
34279;DHT22;20538;51.528;9.942;2023-02-28T10:58:30;3.20;99.90
34279;DHT22;20538;51.528;9.942;2023-02-28T11:00:56;3.50;99.90
34279;DHT22;20538;51.528;9.942;2023-02-28T11:03:40;3.60;99.90
34279;DHT22;20538;51.528;9.942;2023-02-28T11:06:10;3.50;99.90
34279;DHT22;20538;51.528;9.942;2023-02-28T11:08:50;3.50;99.90
34279;DHT22;20538;51.528;9.942;2023-02-28T11:11:17;3.10;99.90
34279;DHT22;20538;51.528;9.942;2023-02-28T11:13:45;3.20;99.90
34279;DHT22;20538;51.528;9.942;2023-02-28T11:16:13;3.10;99.90
34279;DHT22;20538;51.528;9.942;2023-02-28T11:18:52;3.20;99.90
34279;DHT22;20538;51.528;9.942;2023-02-28T11:21:33;3.30;99.90
34279;DHT22;20538;51.528;9.942;2023-02-28T11:26:49;3.80;99.90
34279;DHT22;20538;51.528;9.942;2023-02-28T11:32:18;3.50;99.90
34279;DHT22;20538;51.528;9.942;2023-02-28T11:34:44;3.40;99.90
34279;DHT22;20538;51.528;9.942;2023-02-28T11:37:27;3.70;99.90
34279;DHT22;20538;51.528;9.942;2023-02-28T11:39:54;3.70;99.90
34279;DHT22;20538;51.528;9.942;2023-02-28T11:53:02;3.50;99.90
34279;DHT22;20538;51.528;9.942;2023-02-28T11:55:39;3.70;99.90
34279;DHT22;20538;51.528;9.942;2023-02-28T12:18:17;3.60;99.90
34279;DHT22;20538;51.528;9.942;2023-02-28T12:20:48;3.80;99.90
34279;DHT22;20538;51.528;9.942;2023-02-28T12:28:40;4.30;99.90
34279;DHT22;20538;51.528;9.942;2023-02-28T12:31:18;4.20;99.90
34279;DHT22;20538;51.528;9.942;2023-02-28T12:33:49;4.00;99.90
34279;DHT22;20538;51.528;9.942;2023-02-28T12:36:18;4.20;99.90
34279;DHT22;20538;51.528;9.942;2023-02-28T12:44:35;4.20;99.90
34279;DHT22;20538;51.528;9.942;2023-02-28T12:47:09;4.00;99.90
34279;DHT22;20538;51.528;9.942;2023-02-28T12:58:34;4.50;99.90
34279;DHT22;20538;51.528;9.942;2023-02-28T13:07:24;4.20;99.90
34279;DHT22;20538;51.528;9.942;2023-02-28T13:10:02;4.20;99.90
34279;DHT22;20538;51.528;9.942;2023-02-28T13:12:29;4.40;99.90
34279;DHT22;20538;51.528;9.942;2023-02-28T13:17:29;4.50;99.90
34279;DHT22;20538;51.528;9.942;2023-02-28T13:19:56;4.20;99.90
34279;DHT22;20538;51.528;9.942;2023-02-28T13:24:55;4.20;99.90
34279;DHT22;20538;51.528;9.942;2023-02-28T13:29:50;4.40;99.90
34279;DHT22;20538;51.528;9.942;2023-02-28T13:48:01;4.50;99.90
34279;DHT22;20538;51.528;9.942;2023-02-28T13:55:44;4.40;99.90
34279;DHT22;20538;51.528;9.942;2023-02-28T14:01:34;4.30;99.90
34279;DHT22;20538;51.528;9.942;2023-02-28T14:04:29;4.60;99.90
34279;DHT22;20538;51.528;9.942;2023-02-28T14:06:59;4.40;99.90
34279;DHT22;20538;51.528;9.942;2023-02-28T14:09:35;4.20;99.90
34279;DHT22;20538;51.528;9.942;2023-02-28T14:18:20;4.20;99.90
34279;DHT22;20538;51.528;9.942;2023-02-28T14:20:47;4.40;99.90
34279;DHT22;20538;51.528;9.942;2023-02-28T14:37:16;4.40;99.90
34279;DHT22;20538;51.528;9.942;2023-02-28T14:39:45;4.50;99.90
34279;DHT22;20538;51.528;9.942;2023-02-28T14:42:33;4.50;99.90
34279;DHT22;20538;51.528;9.942;2023-02-28T14:44:59;4.50;99.90
34279;DHT22;20538;51.528;9.942;2023-02-28T14:47:28;4.50;99.90
34279;DHT22;20538;51.528;9.942;2023-02-28T14:49:57;4.50;99.90
34279;DHT22;20538;51.528;9.942;2023-02-28T14:52:31;4.40;99.90
34279;DHT22;20538;51.528;9.942;2023-02-28T14:55:22;4.30;99.90
34279;DHT22;20538;51.528;9.942;2023-02-28T14:57:59;4.20;99.90
34279;DHT22;20538;51.528;9.942;2023-02-28T15:00:30;4.30;99.90
34279;DHT22;20538;51.528;9.942;2023-02-28T15:02:57;4.50;99.90
34279;DHT22;20538;51.528;9.942;2023-02-28T15:05:31;4.50;99.90
34279;DHT22;20538;51.528;9.942;2023-02-28T15:08:12;4.40;99.90
34279;DHT22;20538;51.528;9.942;2023-02-28T15:10:42;4.30;99.90
34279;DHT22;20538;51.528;9.942;2023-02-28T15:13:13;4.30;99.90
34279;DHT22;20538;51.528;9.942;2023-02-28T15:18:07;4.30;99.90
34279;DHT22;20538;51.528;9.942;2023-02-28T15:20:39;4.90;99.90
34279;DHT22;20538;51.528;9.942;2023-02-28T15:23:05;4.50;99.90
34279;DHT22;20538;51.528;9.942;2023-02-28T15:25:31;4.20;99.90
34279;DHT22;20538;51.528;9.942;2023-02-28T15:27:57;4.20;99.90
34279;DHT22;20538;51.528;9.942;2023-02-28T15:30:28;4.20;99.90
34279;DHT22;20538;51.528;9.942;2023-02-28T15:35:39;4.30;99.90
34279;DHT22;20538;51.528;9.942;2023-02-28T15:38:37;4.10;99.90
34279;DHT22;20538;51.528;9.942;2023-02-28T15:41:02;4.10;99.90
34279;DHT22;20538;51.528;9.942;2023-02-28T15:43:36;4.00;99.90
34279;DHT22;20538;51.528;9.942;2023-02-28T15:46:12;4.10;99.90
34279;DHT22;20538;51.528;9.942;2023-02-28T15:48:55;4.00;99.90
34279;DHT22;20538;51.528;9.942;2023-02-28T15:51:34;4.00;99.90
34279;DHT22;20538;51.528;9.942;2023-02-28T15:54:07;4.00;99.90
34279;DHT22;20538;51.528;9.942;2023-02-28T15:56:40;3.90;99.90
34279;DHT22;20538;51.528;9.942;2023-02-28T15:59:15;3.90;99.90
34279;DHT22;20538;51.528;9.942;2023-02-28T16:01:41;3.90;99.90
34279;DHT22;20538;51.528;9.942;2023-02-28T16:04:14;3.80;99.90
34279;DHT22;20538;51.528;9.942;2023-02-28T16:06:47;3.80;99.90
34279;DHT22;20538;51.528;9.942;2023-02-28T16:09:25;3.80;99.90
34279;DHT22;20538;51.528;9.942;2023-02-28T16:11:54;3.80;99.90
34279;DHT22;20538;51.528;9.942;2023-02-28T16:14:25;3.70;99.90
34279;DHT22;20538;51.528;9.942;2023-02-28T16:17:03;3.70;99.90
34279;DHT22;20538;51.528;9.942;2023-02-28T16:19:30;3.60;99.90
34279;DHT22;20538;51.528;9.942;2023-02-28T16:21:56;3.60;99.90
34279;DHT22;20538;51.528;9.942;2023-02-28T16:24:22;3.50;99.90
34279;DHT22;20538;51.528;9.942;2023-02-28T16:26:49;3.50;99.90
34279;DHT22;20538;51.528;9.942;2023-02-28T16:29:29;3.50;99.90
34279;DHT22;20538;51.528;9.942;2023-02-28T16:31:56;3.40;99.90
34279;DHT22;20538;51.528;9.942;2023-02-28T16:34:23;3.40;99.90
34279;DHT22;20538;51.528;9.942;2023-02-28T16:36:49;3.30;99.90
34279;DHT22;20538;51.528;9.942;2023-02-28T16:39:15;3.20;99.90
34279;DHT22;20538;51.528;9.942;2023-02-28T16:41:45;3.20;99.90
34279;DHT22;20538;51.528;9.942;2023-02-28T16:44:21;3.20;99.90
34279;DHT22;20538;51.528;9.942;2023-02-28T16:46:49;3.20;99.90
34279;DHT22;20538;51.528;9.942;2023-02-28T16:49:15;3.10;99.90
34279;DHT22;20538;51.528;9.942;2023-02-28T16:51:41;3.20;99.90
34279;DHT22;20538;51.528;9.942;2023-02-28T16:54:06;3.00;99.90
34279;DHT22;20538;51.528;9.942;2023-02-28T16:56:32;2.90;99.90
34279;DHT22;20538;51.528;9.942;2023-02-28T16:59:01;2.80;99.90
34279;DHT22;20538;51.528;9.942;2023-02-28T17:01:29;2.90;99.90
34279;DHT22;20538;51.528;9.942;2023-02-28T17:03:56;2.80;99.90
34279;DHT22;20538;51.528;9.942;2023-02-28T17:06:27;2.80;99.90
34279;DHT22;20538;51.528;9.942;2023-02-28T17:08:57;2.70;99.90
34279;DHT22;20538;51.528;9.942;2023-02-28T17:11:24;2.60;99.90
34279;DHT22;20538;51.528;9.942;2023-02-28T17:13:50;2.60;99.90
34279;DHT22;20538;51.528;9.942;2023-02-28T17:16:28;2.60;99.90
34279;DHT22;20538;51.528;9.942;2023-02-28T17:19:03;2.40;99.90
34279;DHT22;20538;51.528;9.942;2023-02-28T17:21:30;2.30;99.90
34279;DHT22;20538;51.528;9.942;2023-02-28T17:23:56;2.30;99.90
34279;DHT22;20538;51.528;9.942;2023-02-28T17:26:25;2.20;99.90
34279;DHT22;20538;51.528;9.942;2023-02-28T17:28:52;2.20;99.90
34279;DHT22;20538;51.528;9.942;2023-02-28T17:31:19;2.10;99.90
34279;DHT22;20538;51.528;9.942;2023-02-28T17:33:45;2.10;99.90
34279;DHT22;20538;51.528;9.942;2023-02-28T17:36:21;2.10;99.90
34279;DHT22;20538;51.528;9.942;2023-02-28T17:38:48;2.00;99.90
34279;DHT22;20538;51.528;9.942;2023-02-28T17:41:14;1.90;99.90
34279;DHT22;20538;51.528;9.942;2023-02-28T17:43:39;1.90;99.90
34279;DHT22;20538;51.528;9.942;2023-02-28T17:46:09;1.90;99.90
34279;DHT22;20538;51.528;9.942;2023-02-28T17:48:37;1.80;99.90
34279;DHT22;20538;51.528;9.942;2023-02-28T17:51:03;1.80;99.90
34279;DHT22;20538;51.528;9.942;2023-02-28T17:53:29;1.70;99.90
34279;DHT22;20538;51.528;9.942;2023-02-28T17:55:57;1.60;99.90
34279;DHT22;20538;51.528;9.942;2023-02-28T17:58:23;1.50;99.90
34279;DHT22;20538;51.528;9.942;2023-02-28T18:00:49;1.50;99.90
34279;DHT22;20538;51.528;9.942;2023-02-28T18:03:19;1.40;99.90
34279;DHT22;20538;51.528;9.942;2023-02-28T18:05:46;1.50;99.90
34279;DHT22;20538;51.528;9.942;2023-02-28T18:08:12;1.40;99.90
34279;DHT22;20538;51.528;9.942;2023-02-28T18:10:39;1.30;99.90
34279;DHT22;20538;51.528;9.942;2023-02-28T18:13:04;1.30;99.90
34279;DHT22;20538;51.528;9.942;2023-02-28T18:15:30;1.30;99.90
34279;DHT22;20538;51.528;9.942;2023-02-28T18:17:56;1.20;99.90
34279;DHT22;20538;51.528;9.942;2023-02-28T18:20:22;1.10;99.90
34279;DHT22;20538;51.528;9.942;2023-02-28T18:22:47;1.10;99.90
34279;DHT22;20538;51.528;9.942;2023-02-28T18:25:13;1.00;99.90
34279;DHT22;20538;51.528;9.942;2023-02-28T18:27:42;1.00;99.90
34279;DHT22;20538;51.528;9.942;2023-02-28T18:30:19;1.00;99.90
34279;DHT22;20538;51.528;9.942;2023-02-28T18:32:45;1.00;99.90
34279;DHT22;20538;51.528;9.942;2023-02-28T18:35:11;0.90;99.90
34279;DHT22;20538;51.528;9.942;2023-02-28T18:37:37;0.90;99.90
34279;DHT22;20538;51.528;9.942;2023-02-28T18:40:03;0.80;99.90